x

9440910 - Toke Point, Wa (tokw1) Weather Station

12:54 - Mon 4th May 2015 All times are PDT. -7 hours from GMT.

  • Wind
    6mph, 7mph gusts
  • Luft Temp 51°f
  • Sea Pressure 1013.8mb
  • 9440910 - Toke Point, Wa
  • 9440910 - Toke Point, Wa

More Historic Weather Station data

Upgrade to MSW Pro to gain access to the past 30 days of data for over 8000 Wavebouys and Weather Stations around the globe.

Join Pro

Comparision Forecast

View Surf forecast
   
Mo 05/04 12:54 6 7 mph 1013.8mb 51f
12:48 6 7 mph 1013.8mb 51f
12:42 5 7 mph 1013.8mb 50f
12:36 7 9 mph 1013.8mb 50f
12:30 7 9 mph 1013.8mb 51f
12:24 7 8 mph 1013.8mb 50f
12:18 7 8 mph 1013.8mb 51f
12:12 6 9 mph 1013.8mb 51f
12:06 7 8 mph 1013.8mb 51f
12:00 6 10 mph 1013.7mb 51f
So 05/03 11:48 7 9 mph 1013.8mb 51f
11:24 5 8 mph - -
11:18 6 8 mph 1013.7mb 51f
10:54 5 7 mph 1013.7mb -
10:48 3 6 mph 1013.8mb 51f
10:42 5 6 mph 1013.8mb 51f
10:30 3 7 mph - -
10:24 3 8 mph 1013.8mb 51f
10:18 3 7 mph 1013.8mb 51f
10:12 5 7 mph 1013.7mb 51f
9:54 5 7 mph 1013.7mb 51f
9:48 3 5 mph 1013.7mb 51f
9:42 1 6 mph 1013.8mb 51f
9:36 3 6 mph 1013.9mb 51f
9:30 5 6 mph 1013.9mb 51f
9:24 5 6 mph 1013.9mb 51f
9:18 3 7 mph 1013.9mb 51f
9:12 7 9 mph 1014mb 51f
8:54 7 9 mph 1013.8mb 52f
8:48 9 11 mph 1013.7mb 52f
8:42 6 8 mph 1013.7mb 52f
8:36 8 10 mph 1013.6mb 52f
8:30 7 9 mph 1013.6mb 52f
8:24 8 10 mph 1013.6mb 52f
8:06 9 13 mph 1013.7mb 53f
8:00 9 15 mph 1013.7mb 53f
7:54 11 14 mph 1013.7mb 53f
7:48 10 13 mph 1013.7mb 54f
7:42 10 14 mph 1013.7mb 54f
7:36 10 14 mph 1013.6mb 54f
7:30 11 13 mph 1013.6mb 55f
7:18 10 11 mph 1013.6mb 56f
7:12 8 13 mph 1013.7mb 56f
7:06 8 11 mph 1013.7mb 56f
7:00 9 13 mph 1013.7mb 56f
6:48 8 10 mph 1013.7mb 57f
6:42 8 13 mph 1013.7mb 57f
6:36 9 13 mph 1013.7mb 57f
6:30 8 11 mph 1013.7mb 58f
6:24 10 13 mph 1013.7mb 58f
6:18 11 15 mph 1013.7mb 57f
6:06 13 17 mph 1013.7mb 57f
6:00 14 17 mph 1013.7mb 57f
5:54 11 16 mph 1013.8mb 58f
5:48 14 20 mph 1013.8mb 57f
5:42 15 20 mph 1013.8mb 57f
5:36 13 17 mph 1013.9mb 58f
5:30 14 20 mph 1013.9mb 58f
5:24 14 17 mph 1013.9mb 58f
5:18 11 17 mph 1013.9mb 58f
5:12 15 20 mph 1013.9mb 58f
5:06 15 20 mph 1014mb 58f
5:00 15 21 mph 1014.1mb 58f
4:54 14 17 mph 1014.2mb 58f
4:48 14 20 mph 1014.3mb 58f
4:42 14 17 mph 1014.3mb 58f
4:36 14 17 mph 1014.3mb 58f
4:30 15 18 mph 1014.4mb 58f
4:24 14 18 mph 1014.4mb 58f
4:18 16 20 mph 1014.5mb 58f
4:12 14 16 mph 1014.6mb 59f
4:06 16 20 mph 1014.6mb 58f
4:00 15 20 mph 1014.6mb 58f
3:54 18 21 mph 1014.7mb 58f
3:36 15 17 mph 1014.8mb 59f
3:30 16 18 mph 1014.8mb 59f
3:24 18 20 mph 1014.8mb 59f
3:18 16 21 mph 1014.8mb 60f
3:12 16 18 mph 1014.8mb 60f
3:06 16 18 mph 1014.8mb 60f
3:00 15 17 mph 1014.9mb 61f
2:48 13 16 mph 1015mb 61f
2:42 14 16 mph 1015mb 61f
2:36 13 18 mph 1015mb 61f
2:30 11 17 mph 1015mb 61f
2:24 14 17 mph 1015mb 60f
2:18 13 16 mph 1015.1mb 60f
2:12 10 15 mph 1015.1mb 60f
2:06 10 15 mph 1015.2mb 60f
2:00 13 16 mph 1015.2mb 60f
1:48 15 16 mph 1015.3mb 59f
1:42 15 18 mph 1015.4mb 58f
1:36 16 18 mph 1015.4mb 59f
1:30 13 17 mph 1015.4mb 60f
1:24 15 18 mph 1015.4mb 58f
1:18 13 16 mph 1015.5mb 59f
1:12 14 16 mph 1015.5mb 59f
1:06 14 16 mph 1015.5mb 59f
1:00 13 16 mph 1015.6mb 59f
12:54 15 17 mph 1015.6mb 58f
12:48 15 20 mph 1015.7mb 58f
12:42 15 18 mph 1015.7mb 58f
12:36 16 17 mph 1015.7mb 58f
12:30 14 17 mph 1015.8mb 58f
12:24 14 16 mph 1015.9mb 58f
12:18 10 15 mph 1015.9mb 59f
12:12 11 14 mph 1015.9mb 59f
12:06 8 14 mph 1016mb 59f
12:00 2 7 mph 1016mb 60f
11:54 3 8 mph 1016.1mb 59f
11:48 1 8 mph 1016.1mb 59f
11:42 2 7 mph 1016.2mb 59f
11:36  -  7 mph 1016.3mb 59f
11:30 1 6 mph 1016.3mb 58f
11:24 2 7 mph 1016.3mb 58f
11:18 5 9 mph 1016.3mb -
11:06 2 6 mph 1016.4mb 57f
11:00 5 7 mph 1016.4mb 56f
10:54  -  5 mph 1016.4mb 57f
10:48 2 5 mph 1016.4mb 56f
10:42 2 5 mph 1016.5mb 55f
10:36 2 3 mph 1016.5mb 54f
10:30 2 3 mph 1016.6mb 54f
10:24 2 3 mph 1016.6mb 53f
10:18 1 2 mph - -
10:12 2 3 mph 1016.5mb 52f
10:06 2 3 mph 1016.6mb 53f
10:00 2 3 mph 1016.5mb 51f
9:54 3 5 mph 1016.6mb 51f
9:48 3 5 mph 1016.6mb 51f
9:42 5
mph
1016.6mb 50f
9:36 3 5 mph 1016.6mb 49f
9:30 3 5 mph 1016.7mb 49f
9:24 3 5 mph 1016.7mb 48f
9:18 3 5 mph 1016.7mb -
9:12 2 5 mph 1016.8mb 47f
9:06 3
mph
1016.9mb 47f
9:00 2 3 mph 1017mb 47f
8:54 2 3 mph 1017mb 47f
8:48 2 6 mph 1017mb 46f
8:42 3 5 mph 1017mb 46f
8:36 3 6 mph 1017.1mb 45f
8:30 3 6 mph 1017.1mb 45f
8:24 6 7 mph 1017.1mb 45f
8:18 6 7 mph 1017.1mb 45f
8:12 6 8 mph 1017mb 45f
8:06 6
mph
1017mb 45f
8:00 6 8 mph 1016.9mb 44f
7:54 7 8 mph 1016.9mb 44f
7:48 6 7 mph 1016.9mb 44f
7:42 6 8 mph 1016.9mb 43f
7:36 6 8 mph 1016.9mb 43f
7:30 6 7 mph 1016.9mb 43f
7:24 6 7 mph 1016.9mb 43f
7:18 6 7 mph 1016.9mb 43f
7:12 5 6 mph 1016.9mb 43f
6:54 7 9 mph 1016.8mb 43f
6:48 7 9 mph 1016.7mb 43f
6:42 7 9 mph 1016.6mb 44f
6:30 8 9 mph 1016.6mb 43f
6:24 9 11 mph 1016.5mb 43f
6:18 10 11 mph 1016.5mb 44f
6:12 10 11 mph 1016.4mb 44f
6:06 10 11 mph 1016.4mb 44f
6:00 9 11 mph - -
5:54 9 10 mph 1016.4mb 44f
5:48 9 10 mph 1016.4mb 44f
5:36 8 9 mph 1016.4mb 45f
5:30 8 9 mph 1016.4mb 45f
5:24 8 9 mph 1016.4mb 45f
5:18 7 8 mph 1016.4mb 45f
5:12 8 9 mph 1016.4mb 46f
5:00 8 9 mph 1016.3mb 46f
4:54 8 9 mph 1016.4mb 46f
4:48 8 9 mph 1016.5mb 46f
4:42 7 9 mph 1016.5mb 47f
4:36 8 9 mph 1016.5mb 47f
4:30 8 10 mph 1016.5mb 47f
4:24 7 8 mph 1016.5mb 47f
4:18 7 8 mph 1016.5mb 47f
4:12 3 5 mph 1016.5mb 48f
4:06 3 5 mph 1016.5mb 47f
4:00 3 5 mph 1016.5mb 47f
3:54 2 3 mph 1016.6mb 47f
3:48 3 5 mph 1016.6mb 47f
3:42 2 5 mph 1016.6mb 47f
3:36 2 3 mph 1016.6mb 46f
3:30 2 3 mph 1016.6mb 47f
3:24 2
mph
1016.6mb 46f
3:18 2 3 mph 1016.7mb 47f
3:12 2 3 mph 1016.7mb 47f
3:06 2 3 mph 1016.7mb 47f
3:00 2 5 mph 1016.7mb 47f
2:54 3 5 mph 1016.7mb 48f
2:48 5 6 mph 1016.7mb 48f
2:42 6 7 mph 1016.7mb 48f
2:36 6 7 mph 1016.8mb 48f
2:30 6 7 mph 1016.8mb 49f
2:24 6
mph
1016.7mb 49f
2:18 5 6 mph 1016.7mb 49f
2:12 5 6 mph 1016.7mb 49f
2:06 5 6 mph 1016.8mb 49f
2:00 5 6 mph 1016.9mb 49f
1:54 2 5 mph 1016.9mb 49f
1:48 2 3 mph 1017mb 49f
1:42 2 3 mph 1017mb 49f
1:36 2 3 mph 1017mb 49f
1:30 1 2 mph 1017.1mb 49f
1:24 2
mph
1017.1mb 48f
1:18 2 3 mph 1017.1mb 48f
1:12 2 3 mph 1017.1mb 48f
1:06 2 3 mph 1017.1mb 49f
1:00 2 3 mph 1017.1mb 49f
12:54 2 3 mph 1017.1mb 49f
12:48 2
mph
1017.1mb 49f
12:42 1 2 mph 1017.1mb 50f
12:36 1 2 mph 1017.1mb 50f
12:30 2 3 mph 1017.1mb 50f
12:24 2
mph
1017mb 50f
12:18 2 3 mph 1017mb 50f
12:12  -  2 mph 1017mb 49f
12:06 1 2 mph 1017mb 50f
12:00  -  2 mph 1017.1mb 50f
Sa 05/02 11:42  -  1 mph 1017.1mb 50f
11:24 1 2 mph 1017.1mb -
11:12  -  3 mph 1017.2mb 50f
10:54 2 3 mph 1017.2mb 50f
10:48 2 3 mph 1017.2mb 50f
10:42  -  2 mph 1017.2mb 50f
10:36 2
mph
1017.2mb 49f
10:30 2 3 mph 1017.3mb 50f
10:24  -  2 mph 1017.3mb 50f
10:18 2
mph
1017.3mb 50f
10:12 2 3 mph 1017.4mb 50f
10:06 2 3 mph 1017.4mb 50f
10:00 2 5 mph 1017.4mb 51f
9:54 5 6 mph 1017.3mb 51f
9:48 5 6 mph 1017.3mb 51f
9:42 6 8 mph 1017.3mb 51f
9:36 3 6 mph 1017.2mb 51f
9:30 5 6 mph 1017.2mb 51f
9:24 5 7 mph 1017.1mb 51f
9:18 2 5 mph 1017.1mb 51f
9:12 2 6 mph 1017.1mb 51f
8:54 3 6 mph 1017mb 51f
8:48 6 9 mph 1017mb 51f
8:42 5 7 mph 1016.9mb 51f
8:36 7 10 mph 1016.9mb 51f
8:30 8 11 mph 1016.9mb 51f
8:24 8 10 mph 1016.8mb 52f
8:18 9 14 mph 1016.8mb 52f
8:12 9 13 mph 1016.8mb 52f
8:06 10 14 mph 1016.7mb 52f
8:00 8 14 mph - -
7:54 7 13 mph 1016.8mb 52f
7:48 8 15 mph 1016.8mb 53f
7:42 11 17 mph 1016.8mb 53f
7:36 10 16 mph 1016.7mb 53f
7:30 10 13 mph - -
7:24 8 16 mph 1016.8mb 53f
7:18 15 20 mph 1016.8mb 53f
7:12 14 17 mph 1016.7mb 53f
7:06 15 20 mph 1016.7mb 53f
7:00 16 22 mph 1016.7mb 53f
6:42 15 20 mph 1016.9mb 53f
6:36 16 22 mph 1017mb 54f
6:30 16 20 mph 1017.1mb 54f
6:24 15 23 mph 1017.2mb 54f
6:18 15 22 mph 1017.2mb 54f
6:12 17 22 mph 1017.2mb 54f
6:06 20 23 mph 1017.3mb 54f
6:00 15 18 mph 1017.3mb 55f
5:54 18 22 mph 1017.3mb 54f
5:48 18 23 mph 1017.4mb 54f
5:42 15 22 mph 1017.3mb 55f
5:36 17 24 mph 1017.4mb 54f
5:30 18 21 mph 1017.4mb 55f
5:24 17 21 mph 1017.4mb 54f
5:18 20 23 mph 1017.3mb 54f
5:12 21 22 mph 1017.4mb 54f
5:06 18 22 mph 1017.5mb 54f
5:00 18 22 mph 1017.6mb 54f
4:54 21 23 mph 1017.6mb 54f
4:48 21 24 mph 1017.6mb 54f
4:42 18 22 mph 1017.7mb 55f
4:36 14 21 mph 1017.7mb 55f
4:30 17 23 mph 1017.7mb 54f
4:24 20 22 mph 1017.8mb 54f
4:18 21 23 mph 1017.8mb 54f
4:12 15 21 mph 1017.9mb 55f
4:06 20 23 mph 1017.9mb 55f
4:00 15 20 mph 1018mb 55f
3:54 18 22 mph 1018mb 55f
3:48 16 20 mph 1018.1mb 55f
3:42 16 21 mph 1018.1mb 55f
3:36 16 22 mph 1018.2mb 55f
3:30 20 23 mph 1018.2mb 55f
3:24 16 20 mph 1018.3mb 55f
3:18 18 22 mph 1018.2mb 55f
3:12 18 21 mph 1018.2mb 55f
3:06 17 20 mph 1018.3mb 55f
3:00 16 18 mph 1018.3mb 56f
2:54 18 21 mph 1018.3mb 55f
2:48 15 18 mph 1018.3mb 55f
2:42 16 20 mph 1018.3mb 55f
2:36 18 21 mph 1018.4mb 55f
2:30 18 21 mph 1018.3mb 55f
2:24 18 22 mph 1018.3mb 55f
2:18 18 22 mph 1018.4mb 55f
2:12 17 20 mph 1018.4mb 55f
2:06 18 20 mph 1018.5mb 55f
2:00 18 21 mph 1018.5mb 55f
1:54 17 20 mph 1018.5mb 55f
1:48 18 21 mph 1018.6mb 55f
1:36 17 22 mph 1018.6mb 55f
1:30 17 20 mph 1018.6mb 55f
1:24 16 20 mph 1018.6mb 55f
1:18 16 18 mph 1018.6mb 55f
1:12 15 17 mph 1018.6mb 56f
1:06 16 20 mph 1018.7mb 55f
1:00 15 18 mph 1018.7mb 56f
12:54 14 18 mph 1018.8mb 56f
12:48 15 18 mph 1018.8mb 55f
12:42 16 20 mph 1018.8mb 55f
12:36 14 18 mph 1018.9mb 56f
12:30 15 17 mph 1019mb 56f
12:24 13 16 mph 1019mb 56f
12:18 15 17 mph 1019mb 56f
12:12 13 16 mph 1019mb 56f
12:06 10 13 mph 1019mb 57f
12:00 1 3 mph 1019.1mb 58f
11:54 6 8 mph 1019.1mb 57f
11:48 1 7 mph - -
11:42 6 10 mph 1019.2mb 56f
11:36 5 7 mph 1019.2mb 57f
11:30 2 3 mph 1019.3mb 57f
11:24 2 3 mph 1019.3mb 57f
11:18 2 6 mph - -
11:12 2 5 mph 1019.4mb 56f
11:06 3 5 mph 1019.4mb 55f
11:00 3 6 mph 1019.4mb 56f
10:54 6 8 mph 1019.4mb 56f
10:48 3 6 mph 1019.4mb 55f
10:42 5 6 mph 1019.4mb 54f
10:36 5 6 mph 1019.4mb 54f
10:30 5 6 mph 1019.4mb 53f
10:24 5 6 mph 1019.4mb 53f
10:18 6 7 mph 1019.4mb 53f
10:12 6 7 mph 1019.4mb 52f
10:06 6 7 mph 1019.5mb 52f
10:00 3 5 mph 1019.5mb 53f
9:48 3 5 mph 1019.5mb 52f
9:42 3 5 mph 1019.5mb 52f
9:36 2 3 mph 1019.5mb 52f
9:30 3
mph
1019.5mb 51f
9:24 2 3 mph 1019.5mb 51f
9:18 2 5 mph 1019.5mb 51f
9:12 3 5 mph 1019.6mb 50f
9:06 3 5 mph 1019.6mb 49f
9:00 3
mph
1019.6mb 49f
8:54 3 6 mph 1019.6mb 49f
8:48 5 6 mph 1019.6mb 49f
8:42 5
mph
1019.6mb 49f
8:36 2 5 mph 1019.6mb 49f
8:30 3 5 mph 1019.6mb 48f
8:24 3 5 mph 1019.6mb 48f
8:18 3 6 mph 1019.6mb 48f
8:12 3 5 mph 1019.6mb 48f
8:00 5 6 mph 1019.5mb 48f
7:54 6 7 mph 1019.5mb 47f
7:48 5 6 mph 1019.5mb 47f
7:42 5 6 mph 1019.5mb 47f
7:36 5 7 mph 1019.5mb 47f
7:18 2 3 mph 1019.3mb 46f
7:12 3 5 mph 1019.3mb 47f
7:06 3
mph
1019.3mb 46f
7:00 2 5 mph 1019.2mb 46f
6:54 3 5 mph 1019.2mb 46f
6:48 3 5 mph 1019.1mb 47f
6:36 2 3 mph 1019.1mb 48f
6:30 3
mph
- -
6:24 3 5 mph 1019mb 47f
6:18 5
mph
1019mb 48f
6:12 3 5 mph 1019mb 48f
6:06 3 5 mph 1019mb 47f
6:00 3 6 mph 1019mb 47f
5:54 3 5 mph 1018.9mb 47f
5:48 2 3 mph 1018.9mb 47f
5:36 1 2 mph 1018.9mb 48f
5:30 1 3 mph 1018.9mb 48f
5:24 2 3 mph 1018.9mb 48f
5:18 3 5 mph 1018.9mb 48f
5:12 2 6 mph 1018.9mb 48f
5:06 5 6 mph 1018.9mb 48f
5:00 3 6 mph 1018.9mb 48f
4:54 2 6 mph 1018.9mb 48f
4:48 3 5 mph 1018.9mb 49f
4:42 3
mph
1018.8mb 49f
4:36 2 3 mph 1018.8mb 49f
4:30 1 3 mph 1018.8mb 49f
4:24 2 3 mph 1018.8mb 48f
4:18 2 3 mph 1018.8mb 48f
4:12 2 7 mph 1018.7mb 49f
4:06 5 7 mph 1018.7mb 49f
4:00 3 6 mph 1018.7mb 49f
3:54 5 7 mph 1018.7mb 49f
3:48 3 5 mph 1018.7mb 48f
3:42 1 3 mph 1018.8mb 48f
3:36 1 2 mph 1018.8mb 48f
3:30  -  2 mph 1018.8mb 48f
3:24  -  3 mph 1018.8mb 48f
3:18 3 6 mph 1018.8mb -
3:12 3 6 mph 1018.8mb 49f
3:06 2 5 mph 1018.8mb 49f
3:00 2 3 mph 1018.8mb 48f
2:54 2 3 mph 1018.8mb 49f
2:48 3 5 mph 1018.8mb 49f
2:42 1 3 mph 1018.8mb 49f
2:36 2 6 mph 1018.8mb 49f
2:30 3 6 mph 1018.8mb 49f
2:24 5 7 mph 1018.8mb 49f
2:18 3 7 mph 1018.8mb 49f
2:12 2 7 mph 1018.8mb 49f
2:06 5 6 mph 1018.9mb 49f
2:00  -  11 mph 1018.8mb 49f
1:54 7 9 mph 1018.8mb 49f
1:48 6 9 mph 1018.8mb -
1:42 7 11 mph 1018.8mb 49f
1:36 7 11 mph 1018.8mb 49f
1:30 8 14 mph 1018.8mb 49f
1:24 8 11 mph 1018.8mb 49f
1:18 9 13 mph 1018.7mb 49f
1:12 9 13 mph 1018.8mb 49f
1:06 11 15 mph 1018.8mb 49f
1:00 13 15 mph 1018.7mb 49f
12:54 11 15 mph 1018.7mb 49f
12:48 9 13 mph 1018.7mb 50f
12:42 10 14 mph 1018.7mb 50f
12:30 10 15 mph 1018.7mb 50f
12:24 10 20 mph 1018.8mb 50f
12:18 13 18 mph 1018.7mb 50f
12:12 15 22 mph 1018.6mb 50f
12:06 15 17 mph 1018.6mb 50f
12:00 15 22 mph 1018.6mb 50f
Fr 05/01 11:54 13 16 mph 1018.7mb 50f
11:48 14 17 mph 1018.7mb 50f
11:36 13 16 mph 1018.8mb 50f
11:24 14 16 mph 1018.9mb 50f
10:54 10 16 mph 1018.8mb 50f
10:48 11 14 mph - -
10:42 10 14 mph 1018.7mb 50f
10:36 10 16 mph 1018.7mb 51f
10:30 11 20 mph 1018.7mb 51f
10:24 13 18 mph 1018.6mb 51f
10:06 8 14 mph 1018.6mb 51f
10:00 13 14 mph 1018.6mb 51f
9:54 11 14 mph 1018.5mb 51f
9:48 10 16 mph 1018.5mb 51f
9:42 10 15 mph 1018.5mb 51f
9:30 13 20 mph 1018.4mb -
9:24 9 16 mph 1018.4mb 52f
9:18 10 18 mph 1018.3mb 51f
9:12 13 18 mph 1018.3mb 51f
9:06 13 18 mph 1018.2mb 52f
9:00 16 22 mph 1018.1mb 52f
8:54 14 17 mph 1018mb 52f
8:48 13 18 mph 1018mb 52f
8:42 13 18 mph 1018mb 52f
8:36 14 18 mph 1018mb 52f
8:30 15 17 mph 1018mb 52f
8:24 14 18 mph 1018mb 52f
8:18 17 22 mph 1017.9mb 52f
8:12 14 23 mph 1017.9mb 52f
8:06 14 20 mph 1017.9mb 52f
8:00 13 21 mph 1017.9mb 53f
7:54 14 23 mph 1017.9mb 53f
7:48 14 17 mph 1017.9mb 53f
7:42 13 22 mph 1018mb 53f
7:36 13 20 mph 1018mb 53f
7:30 11 17 mph 1018mb 53f
7:24 13 20 mph 1018mb 53f
7:18 16 26 mph 1018mb 53f
7:12 18 25 mph 1017.9mb 54f
7:06 21 26 mph 1017.9mb 54f
7:00 20 25 mph 1017.9mb 54f
6:54 22 26 mph 1018mb 54f
6:48 17 22 mph 1018mb 54f
6:42 21 24 mph 1018mb 54f
6:36 18 25 mph 1018mb 55f
6:30 20 22 mph 1018mb 55f
6:24 18 28 mph 1018.2mb 55f
6:18 17 23 mph 1018.2mb 55f
6:12 21 25 mph 1018.2mb 55f
6:06 20 26 mph 1018.3mb 55f
6:00 22 29 mph 1018.3mb 55f
5:54 23 28 mph 1018.2mb 55f
5:48 23 29 mph 1018.1mb 55f
5:42 21 28 mph 1018.2mb 55f
5:36 17 23 mph 1018.2mb 55f
5:30 18 26 mph 1018.3mb 55f
5:18 16 22 mph 1018.4mb 56f
5:12 15 23 mph 1018.4mb 56f
5:06 16 23 mph 1018.3mb 55f
5:00 18 25 mph 1018.5mb 55f
4:54 20 25 mph 1018.5mb 55f
4:42 21 25 mph 1018.4mb 55f
4:36 17 22 mph 1018.6mb 55f
4:30 21 25 mph 1018.7mb 55f
4:24 16 24 mph 1018.7mb 55f
4:18 17 24 mph 1018.7mb 55f
4:12 17 23 mph 1018.7mb 55f
4:06 18 23 mph 1018.7mb 55f
3:54 17 23 mph 1018.8mb 55f
3:48 21 24 mph 1018.9mb 55f
3:42 16 23 mph 1018.9mb 55f
3:36 20 24 mph 1018.9mb 55f
3:30 21 28 mph 1018.9mb 55f
3:24 18 25 mph 1019mb 55f
3:18 21 25 mph 1019mb 55f
3:12 20 23 mph 1019.1mb 55f
3:00 15 25 mph 1019.1mb 56f
2:54 17 23 mph 1019.2mb 56f
2:48 18 23 mph 1019.2mb 56f
2:42 20 24 mph 1019.2mb 55f
2:36 14 23 mph 1019.2mb 55f
2:30 17 25 mph 1019.2mb 55f
2:24 16 23 mph 1019.3mb 55f
2:18 20 23 mph 1019.2mb 55f
2:12 17 21 mph 1019.2mb 55f
2:06 16 23 mph 1019.2mb 55f
2:00 16 22 mph 1019.3mb 55f
1:54 17 22 mph 1019.2mb 55f
1:48 17 21 mph 1019.2mb -
1:42 18 22 mph 1019.3mb 55f
1:36 17 22 mph 1019.2mb 55f
1:30 15 22 mph 1019.3mb 55f
1:24 15 20 mph 1019.3mb 55f
1:18 14 21 mph 1019.3mb 55f
1:12 15 20 mph 1019.3mb 55f
1:06 10 20 mph 1019.4mb 55f
1:00 11 16 mph 1019.4mb 55f
12:54 11 16 mph 1019.4mb 55f
12:48 10 16 mph 1019.5mb 55f
12:42 15 18 mph 1019.4mb 55f
12:36 17 20 mph 1019.4mb 55f
12:30 10 17 mph 1019.5mb 55f
12:24 13 17 mph 1019.5mb 55f
12:18 13 16 mph 1019.5mb 55f
12:12 13 16 mph 1019.5mb 55f
12:06 9 11 mph 1019.5mb 55f
12:00 10 15 mph 1019.6mb 54f
11:54 10 20 mph 1019.6mb 55f
11:48 10 21 mph 1019.6mb 55f
11:42 11 14 mph 1019.6mb 55f
11:36 9 15 mph 1019.7mb 55f
11:30 14 16 mph 1019.6mb 54f
11:24 13 17 mph 1019.7mb 54f
11:18 14 18 mph 1019.7mb -
11:12 11 15 mph 1019.6mb 54f
11:06 11 15 mph 1019.7mb 54f
11:00 14 15 mph 1019.6mb 54f
10:54 13 17 mph 1019.7mb 54f
10:48 14 16 mph 1019.6mb -
10:42 13 16 mph 1019.6mb 54f
10:36 10 15 mph 1019.6mb 54f
10:30 13 16 mph 1019.6mb 54f
10:24 11 14 mph 1019.6mb 54f
10:18 7 9 mph 1019.6mb 54f
10:12 8 10 mph 1019.6mb 54f
10:06 7 9 mph 1019.6mb 53f
10:00 6 7 mph 1019.6mb 53f
9:54 2 5 mph 1019.6mb 53f
9:48 3 6 mph 1019.6mb 53f
9:42 6 7 mph 1019.6mb 53f
9:36 3 7 mph 1019.6mb 52f
9:30  -  2 mph 1019.6mb 52f
9:24  -  2 mph 1019.6mb 52f
9:18 1 3 mph 1019.6mb 51f
9:12 2 5 mph 1019.6mb 51f
9:06 1 2 mph 1019.6mb 51f
9:00 1 2 mph 1019.6mb 51f
8:54 2 3 mph 1019.5mb 50f
8:48 2
mph
1019.5mb 50f
8:42 3 5 mph 1019.5mb 50f
8:36 3 5 mph 1019.6mb 50f
8:30 3
mph
1019.6mb 49f
8:24 2 5 mph 1019.6mb 49f
8:18 2 5 mph 1019.6mb 49f
8:12 3 5 mph 1019.6mb 49f
8:06 3 5 mph 1019.5mb 49f
8:00 5
mph
1019.5mb 48f
7:54 5 6 mph 1019.5mb 48f
7:48 6 7 mph 1019.5mb 48f
7:42 6 7 mph 1019.5mb 48f
7:36 6 7 mph 1019.4mb 47f
7:18 8
mph
1019.4mb 47f
7:12 8
mph
1019.4mb 47f
7:06 7 8 mph 1019.3mb 48f
7:00 5 7 mph 1019.3mb 49f
6:54 6 8 mph 1019.3mb 49f
6:48 7 8 mph 1019.3mb 49f
6:42 5 6 mph 1019.2mb 49f
6:36 2
mph
1019.2mb 49f
6:30  -  3 mph 1019.2mb 48f
6:18 6 7 mph 1019.2mb 48f
6:12 3 5 mph 1019.2mb 48f
6:06 3 5 mph 1019.2mb 48f
6:00 1 3 mph 1019.2mb 48f
5:54 2 5 mph 1019.2mb 49f
5:48 3 5 mph 1019.2mb 48f
5:42 5 6 mph 1019.3mb 48f
5:36 6
mph
1019.3mb 48f
5:30 5
mph
1019.3mb 48f
5:24 5 6 mph 1019.2mb 48f
5:18 5 7 mph 1019.2mb 49f
5:12 6 7 mph 1019.2mb 49f
5:06 6
mph
1019.2mb 49f
5:00 5 7 mph 1019.3mb 50f
4:54 6 7 mph 1019.3mb 50f
4:48 3 5 mph 1019.4mb 50f
4:42 5 6 mph 1019.4mb 50f
4:36 6
mph
1019.4mb 50f
4:30 6 8 mph 1019.5mb 50f
4:24 7 8 mph 1019.4mb 50f
4:18 8 9 mph 1019.4mb 50f
4:12 7 9 mph 1019.5mb 51f
4:06 3 6 mph 1019.5mb 50f
4:00 3 5 mph 1019.9mb 50f
3:54 5
mph
1019.9mb 50f
3:48 5
mph
1019.9mb 50f
3:42 6
mph
1019.9mb 49f
3:36 2 3 mph 1020.1mb 49f
3:30 2 5 mph 1020.2mb 49f
3:24 3 6 mph 1020.2mb 49f
3:18 6
mph
1020.2mb 49f
3:12 6
mph
1020.3mb 49f
3:06 5 6 mph 1020.3mb 50f
3:00 5 6 mph 1020.2mb 50f
2:54 5
mph
1020.2mb 51f
2:48 3 5 mph 1020.2mb 51f
2:42 3 6 mph 1020.3mb 50f
2:36 5 6 mph 1020.3mb 50f
2:30 3 5 mph 1020.3mb 50f
2:24 5
mph
1020.4mb 50f
2:18 5 6 mph 1020.5mb 50f
2:12 3 5 mph 1020.5mb 51f
2:06 3 5 mph 1020.5mb 51f
2:00 3 5 mph 1020.5mb 51f
1:54 3 5 mph 1020.5mb 51f
1:48 3 5 mph 1020.6mb 50f
1:30 5 6 mph 1020.9mb 50f
1:24 5 6 mph 1020.9mb 50f
1:18 3 6 mph 1020.9mb 50f
1:12 5 6 mph 1021mb 50f
1:06 5 6 mph 1021mb 50f
1:00 5 6 mph 1021mb 50f
12:54 2 3 mph 1021mb 50f
12:48 2 3 mph 1021mb 51f
12:42 3 5 mph 1021.1mb 51f
12:36 2 3 mph 1021.1mb 51f
12:30 2
mph
1021.1mb 51f
12:12  -  1 mph 1021.2mb -
12:00  -  2 mph 1021.3mb 51f
Do 04/30 11:18 1 2 mph 1021.7mb 51f
10:54 3 5 mph 1021.9mb 52f
10:48  -  1 mph 1021.9mb 52f
10:42 1 3 mph 1021.9mb 51f
10:36 3 5 mph 1022mb 52f
10:30 5
mph
1022mb 52f
10:24 5
mph
1022mb 52f
10:18 3 6 mph 1022mb -
10:12 6 7 mph 1022mb 52f
10:06 5 6 mph 1022.1mb 52f
10:00 5 6 mph 1022.1mb 52f
9:54 3 5 mph 1022mb 52f
9:48 5 6 mph 1022mb -
9:42 6 7 mph 1022mb 52f
9:36 6 8 mph 1022.1mb 52f
9:30 6 8 mph 1022.1mb 53f
9:24 6 7 mph 1022mb 53f
9:18 7 8 mph 1022mb 53f
9:12 6 8 mph 1022mb 53f
9:06 6 8 mph 1022mb 53f
9:00 6 7 mph 1021.9mb 53f
8:54 7 9 mph 1021.9mb 53f
8:48 7 10 mph 1021.9mb 53f
8:42 7 9 mph 1021.9mb 53f
8:36 8 10 mph 1021.9mb 53f
8:30 8 11 mph 1021.9mb 53f
8:24 7 9 mph 1021.8mb 53f
8:18 9 11 mph 1021.8mb 53f
8:12 7 9 mph 1022mb 53f
8:06 7 11 mph 1022mb 53f
8:00 7 9 mph 1022.1mb 53f
7:54 7 8 mph 1022.2mb 53f
7:48 7 9 mph 1022.1mb 54f
7:42 7 10 mph 1022.1mb 54f
7:36 8 10 mph 1022.1mb 54f
7:30 7 10 mph 1022.2mb 54f
7:24 9 14 mph 1022.3mb 54f
7:18 9 11 mph 1022.2mb 54f
7:12 9 11 mph 1022.2mb 54f
7:06 11 14 mph 1022.3mb 54f
7:00 10 14 mph 1022.3mb 55f
6:54 9 14 mph 1022.3mb 55f
6:48 11 15 mph 1022.4mb 55f
6:42 13 16 mph 1022.6mb 55f
6:36 14 16 mph 1022.7mb 55f
6:30 14 16 mph 1022.7mb 55f
6:24 14 18 mph 1022.7mb 55f
6:18 15 18 mph 1022.8mb 55f
6:12 16 18 mph 1022.9mb 55f
6:06 15 20 mph 1022.9mb 55f
6:00 14 17 mph 1023mb 56f
5:54 17 20 mph 1023mb 56f
5:48 14 17 mph 1023.2mb 56f
5:42 13 18 mph 1023.2mb 56f
5:36 14 17 mph 1023.2mb 56f
5:30 14 17 mph 1023.2mb 56f
5:24 15 17 mph 1023.3mb 56f
5:18 14 16 mph 1023.4mb 56f
5:12 14 16 mph 1023.4mb 56f
5:06 13 16 mph 1023.6mb 56f
5:00 13 17 mph 1023.7mb 56f
4:54 13 17 mph 1023.8mb 56f
4:48 14 16 mph 1023.8mb 56f
4:42 14 16 mph 1023.9mb 56f
4:36 14 18 mph 1024mb 56f
4:00 11 17 mph 1024.5mb 56f
3:54 11 17 mph 1024.5mb 56f
3:48 14 18 mph 1024.6mb 56f
3:42 14 18 mph 1024.6mb 56f
3:36 14 17 mph 1024.7mb 56f
3:30 14 18 mph 1024.8mb 56f
3:24 14 18 mph 1024.9mb 56f
3:18 11 16 mph 1024.9mb 56f
3:12 13 17 mph 1025mb 56f
3:06 13 17 mph 1025.2mb 56f
3:00 13 16 mph 1025.2mb 56f
2:54 14 16 mph 1025.3mb 55f
2:48 11 16 mph 1025.4mb 56f
2:42 10 15 mph 1025.5mb 56f
2:36 13 15 mph 1025.6mb 55f
2:30 10 16 mph 1025.7mb 56f
2:24 13 16 mph 1025.8mb 55f
2:18 9 14 mph 1025.8mb 56f
2:12 9 14 mph 1025.9mb 56f
2:06 10 13 mph 1025.9mb 55f
2:00 9 13 mph 1026mb 55f
1:54 10 14 mph 1026mb 55f
1:48 10 14 mph 1026.1mb 54f
1:42 9 13 mph 1026.2mb 55f
1:36 7 13 mph 1026.3mb 55f
1:30 9 13 mph 1026.2mb 54f
1:24 9 13 mph 1026.3mb 55f
1:18 9 11 mph 1026.3mb 54f
1:12 8 10 mph 1026.3mb 54f
1:06 8 11 mph 1026.4mb 54f
1:00 7 9 mph 1026.5mb 54f
12:54 7 8 mph 1026.6mb 54f
12:48 3 6 mph 1026.7mb 55f
12:42 1 6 mph 1026.7mb 55f
12:36 3 8 mph 1026.7mb 54f
12:30 7 9 mph 1026.8mb 53f
12:24 1 6 mph 1026.8mb 55f
11:42 2 6 mph 1027.1mb 55f
11:36 2 6 mph 1027.1mb 55f
11:30 1 6 mph 1027.1mb 55f
11:24 1 5 mph 1027.2mb 55f
11:18 3 7 mph 1027.2mb 55f
11:12  -  6 mph 1027.2mb 55f
11:06 2 6 mph 1027.2mb 54f
11:00 3 6 mph 1027.3mb 54f
10:54 5
mph
1027.3mb 53f
10:48 3 5 mph 1027.3mb 53f
10:42 2 5 mph 1027.3mb 53f
10:36 3 6 mph 1027.2mb 53f
10:30 3 5 mph 1027.3mb 52f
10:24 3 6 mph 1027.3mb 52f
10:18 3 6 mph 1027.3mb 53f
10:12 5 7 mph 1027.4mb 53f
10:06 3 6 mph 1027.4mb 53f
10:00 3 6 mph 1027.5mb 53f
9:54 3 5 mph 1027.5mb 52f
9:48 5
mph
1027.5mb 52f
9:42 3
mph
1027.5mb 52f
9:36 2 3 mph 1027.6mb 52f
9:30  -  2 mph 1027.5mb 52f
9:24 2
mph
1027.5mb 52f
9:18 2 3 mph 1027.6mb 51f
9:12 2 3 mph 1027.5mb 51f
9:06 3 5 mph 1027.5mb 51f
9:00 5 6 mph 1027.6mb 50f
8:54 5 6 mph 1027.6mb 50f
8:48 5 7 mph 1027.6mb 50f
8:42 6 8 mph 1027.7mb 49f